createdAt,value
2022-12-08T00:00:24.049Z,1.76
2022-12-08T00:02:50.760Z,1.66
2022-12-08T00:05:36.282Z,1.45
2022-12-08T00:08:21.631Z,1.60
2022-12-08T00:10:49.649Z,1.56
2022-12-08T00:13:16.663Z,1.56
2022-12-08T00:15:43.190Z,1.64
2022-12-08T00:18:09.896Z,1.68
2022-12-08T00:20:36.471Z,1.82
2022-12-08T00:23:04.426Z,1.37
2022-12-08T00:25:31.683Z,1.36
2022-12-08T00:27:58.219Z,1.43
2022-12-08T00:30:24.821Z,1.10
2022-12-08T00:32:51.542Z,1.13
2022-12-08T00:35:18.135Z,0.98
2022-12-08T00:37:44.667Z,0.92
2022-12-08T00:40:11.856Z,0.89
2022-12-08T00:42:38.571Z,0.92
2022-12-08T00:45:05.334Z,0.98
2022-12-08T00:47:31.896Z,1.23
2022-12-08T00:49:58.465Z,1.21
2022-12-08T00:52:25.029Z,1.39
2022-12-08T00:54:51.549Z,1.52
2022-12-08T00:57:18.097Z,1.50
2022-12-08T00:59:44.601Z,1.46
2022-12-08T01:02:11.460Z,1.48
2022-12-08T01:04:38.296Z,1.39
2022-12-08T01:07:04.941Z,1.49
2022-12-08T01:09:31.493Z,1.61
2022-12-08T01:11:58.216Z,1.47
2022-12-08T01:14:24.754Z,1.51
2022-12-08T01:16:51.474Z,1.40
2022-12-08T01:19:18.235Z,1.46
2022-12-08T01:21:45.387Z,1.47
2022-12-08T01:24:13.275Z,1.05
2022-12-08T01:26:39.886Z,1.39
2022-12-08T01:29:06.556Z,1.20
2022-12-08T01:31:33.184Z,1.36
2022-12-08T01:33:59.615Z,1.28
2022-12-08T01:36:27.881Z,1.16
2022-12-08T01:38:56.542Z,1.19
2022-12-08T01:41:24.759Z,1.14
2022-12-08T01:44:00.375Z,1.08
2022-12-08T01:46:28.499Z,1.09
2022-12-08T01:49:02.338Z,0.97
2022-12-08T01:51:32.055Z,1.11
2022-12-08T01:53:58.619Z,1.09
2022-12-08T01:56:33.914Z,1.27
2022-12-08T01:59:00.661Z,1.05
2022-12-08T02:01:27.472Z,1.07
2022-12-08T02:04:02.231Z,1.14
2022-12-08T02:06:31.316Z,0.91
2022-12-08T02:09:00.736Z,1.35
2022-12-08T02:11:27.620Z,1.00
2022-12-08T02:13:55.848Z,1.20
2022-12-08T02:16:22.361Z,1.15
2022-12-08T02:19:30.368Z,1.18
2022-12-08T02:22:01.012Z,1.03
2022-12-08T02:24:30.656Z,1.03
2022-12-08T02:27:00.223Z,0.97
2022-12-08T02:29:35.768Z,0.87
2022-12-08T02:32:21.776Z,0.94
2022-12-08T02:34:51.169Z,0.93
2022-12-08T02:37:32.281Z,0.95
2022-12-08T02:40:08.666Z,0.94
2022-12-08T02:42:43.428Z,0.91
2022-12-08T02:45:16.244Z,0.90
2022-12-08T02:47:43.667Z,0.71
2022-12-08T02:50:10.867Z,0.80
2022-12-08T02:52:48.002Z,0.79
2022-12-08T02:55:25.834Z,0.76
2022-12-08T02:58:17.973Z,0.90
2022-12-08T03:00:56.858Z,0.88
2022-12-08T03:03:26.381Z,0.94
2022-12-08T03:06:06.727Z,1.02
2022-12-08T03:08:42.280Z,1.26
2022-12-08T03:11:20.327Z,1.65
2022-12-08T03:13:51.358Z,1.21
2022-12-08T03:16:21.551Z,1.84
2022-12-08T03:18:52.696Z,1.33
2022-12-08T03:21:21.528Z,1.11
2022-12-08T03:23:51.493Z,1.25
2022-12-08T03:26:30.246Z,1.25
2022-12-08T03:28:57.719Z,1.26
2022-12-08T03:31:27.950Z,1.33
2022-12-08T03:33:57.200Z,1.22
2022-12-08T03:36:25.396Z,1.50
2022-12-08T03:38:53.461Z,1.27
2022-12-08T03:41:21.509Z,1.25
2022-12-08T03:43:55.808Z,1.65
2022-12-08T03:48:50.014Z,1.13
2022-12-08T03:51:17.042Z,1.05
2022-12-08T03:53:43.827Z,1.04
2022-12-08T03:56:19.531Z,1.17
2022-12-08T03:58:46.019Z,1.25
2022-12-08T04:01:13.162Z,1.24
2022-12-08T04:03:39.720Z,1.07
2022-12-08T04:06:06.629Z,1.03
2022-12-08T04:08:33.258Z,1.14
2022-12-08T04:10:59.883Z,1.59
2022-12-08T04:13:26.440Z,1.11
2022-12-08T04:15:53.021Z,1.53
2022-12-08T04:18:19.690Z,1.25
2022-12-08T04:20:46.285Z,1.21
2022-12-08T04:23:13.365Z,0.92
2022-12-08T04:25:40.216Z,1.16
2022-12-08T04:28:06.851Z,1.07
2022-12-08T04:30:33.451Z,1.23
2022-12-08T04:32:59.960Z,1.41
2022-12-08T04:35:26.903Z,1.07
2022-12-08T04:37:53.541Z,0.97
2022-12-08T04:40:20.152Z,1.08
2022-12-08T04:42:47.308Z,1.13
2022-12-08T04:45:13.773Z,1.09
2022-12-08T04:47:40.369Z,1.12
2022-12-08T04:50:08.360Z,1.25
2022-12-08T04:52:35.621Z,1.28
2022-12-08T04:55:03.052Z,1.26
2022-12-08T04:57:29.599Z,1.10
2022-12-08T04:59:56.141Z,1.12
2022-12-08T05:02:22.802Z,1.16
2022-12-08T05:04:49.392Z,0.94
2022-12-08T05:07:16.157Z,1.39
2022-12-08T05:09:42.708Z,1.02
2022-12-08T05:12:09.204Z,1.04
2022-12-08T05:14:35.712Z,1.18
2022-12-08T05:17:06.336Z,1.09
2022-12-08T05:19:35.750Z,0.94
2022-12-08T05:22:02.279Z,0.99
2022-12-08T05:24:28.754Z,0.83
2022-12-08T05:26:55.319Z,1.07
2022-12-08T05:29:21.980Z,1.00
2022-12-08T05:31:48.628Z,1.17
2022-12-08T05:34:15.188Z,1.27
2022-12-08T05:36:41.768Z,1.21
2022-12-08T05:39:09.322Z,1.39
2022-12-08T05:41:35.820Z,1.44
2022-12-08T05:44:02.427Z,1.39
2022-12-08T05:46:28.984Z,1.52
2022-12-08T05:48:55.699Z,1.37
2022-12-08T05:51:23.461Z,1.27
2022-12-08T05:53:51.427Z,1.30
2022-12-08T05:56:18.581Z,1.25
2022-12-08T05:58:45.224Z,1.23
2022-12-08T06:01:28.170Z,1.18
2022-12-08T06:03:55.295Z,1.16
2022-12-08T06:06:21.921Z,1.27
2022-12-08T06:08:49.045Z,1.34
2022-12-08T06:11:34.898Z,1.19
2022-12-08T06:14:02.024Z,1.25
2022-12-08T06:16:28.955Z,1.14
2022-12-08T06:18:56.508Z,1.03
2022-12-08T06:21:23.762Z,0.94
2022-12-08T06:23:51.419Z,0.92
2022-12-08T06:26:18.634Z,0.82
2022-12-08T06:28:45.254Z,0.79
2022-12-08T06:31:16.982Z,0.90
2022-12-08T06:33:43.921Z,0.71
2022-12-08T06:36:11.829Z,0.80
2022-12-08T06:38:43.042Z,0.86
2022-12-08T06:41:11.031Z,0.88
2022-12-08T06:43:38.247Z,1.00
2022-12-08T06:46:10.601Z,0.68
2022-12-08T06:48:37.208Z,1.00
2022-12-08T06:51:15.669Z,1.09
2022-12-08T06:53:42.611Z,1.24
2022-12-08T06:56:09.867Z,1.17
2022-12-08T06:58:36.428Z,1.33
2022-12-08T07:01:11.273Z,1.11
2022-12-08T07:03:38.583Z,1.26
2022-12-08T07:06:05.726Z,2.90
2022-12-08T07:08:33.154Z,1.42
2022-12-08T07:10:59.871Z,1.27
2022-12-08T07:13:27.121Z,1.27
2022-12-08T07:15:53.669Z,1.44
2022-12-08T07:18:20.368Z,0.95
2022-12-08T07:20:46.982Z,1.32
2022-12-08T07:23:13.572Z,1.36
2022-12-08T07:25:40.089Z,1.76
2022-12-08T07:28:10.772Z,2.86
2022-12-08T07:30:37.603Z,1.34
2022-12-08T07:33:07.553Z,1.45
2022-12-08T07:35:35.240Z,1.37
2022-12-08T07:38:02.300Z,1.48
2022-12-08T07:40:29.232Z,1.50
2022-12-08T07:42:55.791Z,1.42
2022-12-08T07:45:28.210Z,1.38
2022-12-08T07:47:57.821Z,1.37
2022-12-08T07:50:24.574Z,1.33
2022-12-08T07:52:51.089Z,1.12
2022-12-08T07:55:17.681Z,1.14
2022-12-08T07:57:44.212Z,1.62
2022-12-08T08:00:10.997Z,1.08
2022-12-08T08:02:37.634Z,1.19
2022-12-08T08:05:05.087Z,1.05
2022-12-08T08:07:32.279Z,1.08
2022-12-08T08:09:58.811Z,1.15
2022-12-08T08:12:33.150Z,1.07
2022-12-08T08:15:01.000Z,1.69
2022-12-08T08:17:28.483Z,1.28
2022-12-08T08:19:55.311Z,1.52
2022-12-08T08:22:22.000Z,1.35
2022-12-08T08:24:48.530Z,1.47
2022-12-08T08:27:15.076Z,1.49
2022-12-08T08:29:41.634Z,1.57
2022-12-08T08:32:08.243Z,1.42
2022-12-08T08:34:34.768Z,1.11
2022-12-08T08:37:01.454Z,1.07
2022-12-08T08:39:30.145Z,1.23
2022-12-08T08:41:56.746Z,1.10
2022-12-08T08:44:23.402Z,0.96
2022-12-08T08:46:50.114Z,0.97
2022-12-08T08:49:16.711Z,1.20
2022-12-08T08:51:43.906Z,1.15
2022-12-08T08:54:10.644Z,1.07
2022-12-08T08:56:37.197Z,1.07
2022-12-08T08:59:04.026Z,1.09
2022-12-08T09:01:30.697Z,1.28
2022-12-08T09:03:57.883Z,1.16
2022-12-08T09:06:25.729Z,1.04
2022-12-08T09:08:52.395Z,1.20
2022-12-08T09:11:19.111Z,1.15
2022-12-08T09:13:49.604Z,1.06
2022-12-08T09:16:16.154Z,1.06
2022-12-08T09:18:43.267Z,0.98
2022-12-08T09:21:22.496Z,0.90
2022-12-08T09:23:50.246Z,1.10
2022-12-08T09:26:16.950Z,1.36
2022-12-08T09:28:46.534Z,1.34
2022-12-08T09:31:14.337Z,1.33
2022-12-08T09:33:41.000Z,1.31
2022-12-08T09:36:07.759Z,1.25
2022-12-08T09:38:34.364Z,1.41
2022-12-08T09:41:03.506Z,1.76
2022-12-08T09:43:36.111Z,1.52
2022-12-08T09:46:08.140Z,1.25
2022-12-08T09:48:38.801Z,1.27
2022-12-08T09:51:06.009Z,1.61
2022-12-08T09:53:52.962Z,1.52
2022-12-08T09:56:25.379Z,1.40
2022-12-08T09:58:57.859Z,1.57
2022-12-08T10:01:28.431Z,1.60
2022-12-08T10:03:56.242Z,1.17
2022-12-08T10:06:39.624Z,0.97
2022-12-08T10:09:08.839Z,0.89
2022-12-08T10:11:45.573Z,1.04
2022-12-08T10:14:15.264Z,1.41
2022-12-08T10:16:46.696Z,1.28
2022-12-08T10:19:22.394Z,1.14
2022-12-08T10:21:49.617Z,1.34
2022-12-08T10:24:16.161Z,1.38
2022-12-08T10:26:43.211Z,1.44
2022-12-08T10:29:13.238Z,1.22
2022-12-08T10:31:39.870Z,1.38
2022-12-08T10:34:17.551Z,1.39
2022-12-08T10:36:45.413Z,1.31
2022-12-08T10:39:29.564Z,1.22
2022-12-08T10:42:14.424Z,1.15
2022-12-08T10:44:59.990Z,1.09
2022-12-08T10:47:28.671Z,1.08
2022-12-08T10:50:20.823Z,1.20
2022-12-08T10:52:56.575Z,1.33
2022-12-08T10:55:23.440Z,1.39
2022-12-08T10:57:50.143Z,1.40
2022-12-08T11:00:18.845Z,1.36
2022-12-08T11:02:57.166Z,2.08
2022-12-08T11:05:27.345Z,1.75
2022-12-08T11:07:55.206Z,2.12
2022-12-08T11:10:30.417Z,2.28
2022-12-08T11:13:00.080Z,2.38
2022-12-08T11:15:33.194Z,2.62
2022-12-08T11:18:03.187Z,2.88
2022-12-08T11:20:37.769Z,2.86
2022-12-08T11:23:04.273Z,2.74
2022-12-08T11:25:30.869Z,2.31
2022-12-08T11:27:59.078Z,2.05
2022-12-08T11:30:29.614Z,1.75
2022-12-08T11:33:14.844Z,1.68
2022-12-08T11:35:43.859Z,1.51
2022-12-08T11:38:21.591Z,1.49
2022-12-08T11:40:52.680Z,1.71
2022-12-08T11:43:34.494Z,1.63
2022-12-08T11:46:03.066Z,1.60
2022-12-08T11:48:40.059Z,1.55
2022-12-08T11:51:13.492Z,1.29
2022-12-08T11:53:48.893Z,1.27
2022-12-08T11:56:20.224Z,1.30
2022-12-08T11:58:53.961Z,1.49
2022-12-08T12:01:22.831Z,1.51
2022-12-08T12:03:58.666Z,1.42
2022-12-08T12:06:54.378Z,1.50
2022-12-08T12:09:36.992Z,1.14
2022-12-08T12:12:13.270Z,1.27
2022-12-08T12:15:12.519Z,1.93
2022-12-08T12:17:56.503Z,2.82
2022-12-08T12:20:30.621Z,2.49
2022-12-08T12:23:02.303Z,1.40
2022-12-08T12:25:29.441Z,1.38
2022-12-08T12:27:59.741Z,1.51
2022-12-08T12:30:27.907Z,1.52
2022-12-08T12:33:00.441Z,1.41
2022-12-08T12:35:35.726Z,1.43
2022-12-08T12:38:26.015Z,1.51
2022-12-08T12:40:59.311Z,1.52
2022-12-08T12:43:29.554Z,1.62
2022-12-08T12:46:25.457Z,1.41
2022-12-08T12:48:52.873Z,1.35
2022-12-08T12:51:36.482Z,1.59
2022-12-08T12:54:21.888Z,1.72
2022-12-08T12:56:51.431Z,1.37
2022-12-08T12:59:44.449Z,1.50
2022-12-08T13:02:29.987Z,1.44
2022-12-08T13:05:18.526Z,1.37
2022-12-08T13:07:45.025Z,1.24
2022-12-08T13:10:27.765Z,1.64
2022-12-08T13:13:16.372Z,1.54
2022-12-08T13:15:57.490Z,1.56
2022-12-08T13:18:32.439Z,1.56
2022-12-08T13:21:11.193Z,1.68
2022-12-08T13:23:37.894Z,1.74
2022-12-08T13:26:18.814Z,1.46
2022-12-08T13:29:11.260Z,1.80
2022-12-08T13:31:46.625Z,2.57
2022-12-08T13:34:21.490Z,2.03
2022-12-08T13:36:50.870Z,1.93
2022-12-08T13:39:24.601Z,1.72
2022-12-08T13:41:59.404Z,1.60
2022-12-08T13:47:37.084Z,1.46
2022-12-08T13:58:40.836Z,1.43
2022-12-08T14:01:17.703Z,1.69
2022-12-08T14:06:46.053Z,1.78
2022-12-08T14:09:24.026Z,2.13
2022-12-08T14:12:03.529Z,2.24
2022-12-08T14:15:00.456Z,1.90
2022-12-08T14:17:19.594Z,2.15
2022-12-08T14:20:03.342Z,1.95
2022-12-08T14:22:37.168Z,1.94
2022-12-08T14:25:04.891Z,1.92
2022-12-08T14:27:36.691Z,1.95
2022-12-08T14:30:07.518Z,2.11
2022-12-08T14:32:38.251Z,1.90
2022-12-08T14:35:08.034Z,1.77
2022-12-08T14:37:46.944Z,2.17
2022-12-08T14:40:13.548Z,2.19
2022-12-08T14:42:45.887Z,2.47
2022-12-08T14:45:15.165Z,2.58
2022-12-08T14:47:42.242Z,2.36
2022-12-08T14:50:27.527Z,2.01
2022-12-08T14:52:54.138Z,1.62
2022-12-08T14:55:20.774Z,2.01
2022-12-08T14:57:49.200Z,1.80
2022-12-08T15:00:20.100Z,1.94
2022-12-08T15:02:46.950Z,2.05
2022-12-08T15:05:19.299Z,2.24
2022-12-08T15:07:51.615Z,2.10
2022-12-08T15:10:20.677Z,2.38
2022-12-08T15:13:02.668Z,2.43
2022-12-08T15:15:31.040Z,2.41
2022-12-08T15:18:03.430Z,2.67
2022-12-08T15:20:38.783Z,3.03
2022-12-08T15:23:06.718Z,2.55
2022-12-08T15:25:33.665Z,2.55
2022-12-08T15:28:02.563Z,2.69
2022-12-08T15:30:29.818Z,2.77
2022-12-08T15:32:56.555Z,2.76
2022-12-08T15:35:23.113Z,2.91
2022-12-08T15:37:49.822Z,3.01
2022-12-08T15:40:21.303Z,3.31
2022-12-08T15:42:48.885Z,3.22
2022-12-08T15:45:16.388Z,2.73
2022-12-08T15:47:43.634Z,3.09
2022-12-08T15:50:21.438Z,3.38
2022-12-08T15:52:48.899Z,3.14
2022-12-08T15:55:16.796Z,3.02
2022-12-08T15:58:31.247Z,3.07
2022-12-08T16:03:51.596Z,3.45
2022-12-08T16:09:11.751Z,3.67
2022-12-08T16:12:07.629Z,3.73
2022-12-08T16:17:22.503Z,4.93
2022-12-08T16:19:49.085Z,5.57
2022-12-08T16:25:17.785Z,5.48
2022-12-08T16:28:17.326Z,5.75
2022-12-08T16:30:32.865Z,6.19
2022-12-08T16:32:59.418Z,6.55
2022-12-08T16:35:26.176Z,6.18
2022-12-08T16:37:52.732Z,6.92
2022-12-08T16:40:19.400Z,6.97
2022-12-08T16:42:47.803Z,7.30
2022-12-08T16:45:18.924Z,7.27
2022-12-08T16:47:47.442Z,7.48
2022-12-08T16:50:16.103Z,7.55
2022-12-08T16:52:42.782Z,7.66
2022-12-08T16:55:11.045Z,7.66
2022-12-08T16:57:37.689Z,7.85
2022-12-08T17:00:06.959Z,7.85
2022-12-08T17:02:33.984Z,8.21
2022-12-08T17:05:00.622Z,8.47
2022-12-08T17:07:27.293Z,8.42
2022-12-08T17:09:53.840Z,8.72
2022-12-08T17:12:20.429Z,8.79
2022-12-08T17:14:46.974Z,7.98
2022-12-08T17:17:13.502Z,8.33
2022-12-08T17:19:40.353Z,8.30
2022-12-08T17:22:06.891Z,8.41
2022-12-08T17:24:33.759Z,8.41
2022-12-08T17:27:04.328Z,9.06
2022-12-08T17:29:32.418Z,9.00
2022-12-08T17:31:59.120Z,9.24
2022-12-08T17:34:25.842Z,9.33
2022-12-08T17:36:52.467Z,9.09
2022-12-08T17:39:19.349Z,10.47
2022-12-08T17:41:46.318Z,10.60
2022-12-08T17:44:14.003Z,10.11
2022-12-08T17:46:43.368Z,9.82
2022-12-08T17:49:16.113Z,9.92
2022-12-08T17:51:42.700Z,10.34
2022-12-08T17:54:09.276Z,10.29
2022-12-08T17:56:35.826Z,10.80
2022-12-08T17:59:03.038Z,11.01
2022-12-08T18:01:29.803Z,10.67
2022-12-08T18:03:57.989Z,10.23
2022-12-08T18:06:28.175Z,9.74
2022-12-08T18:08:58.950Z,10.15
2022-12-08T18:11:26.444Z,10.58
2022-12-08T18:13:53.898Z,9.90
2022-12-08T18:16:21.636Z,9.53
2022-12-08T18:18:48.615Z,10.89
2022-12-08T18:21:22.860Z,11.66
2022-12-08T18:23:50.492Z,12.03
2022-12-08T18:26:17.289Z,12.74
2022-12-08T18:28:43.966Z,15.20
2022-12-08T18:31:12.157Z,18.71
2022-12-08T18:33:43.509Z,17.80
2022-12-08T18:36:12.537Z,16.15
2022-12-08T18:38:39.323Z,15.49
2022-12-08T18:41:10.988Z,15.02
2022-12-08T18:43:37.745Z,14.99
2022-12-08T18:46:05.788Z,14.55
2022-12-08T18:48:32.320Z,14.95
2022-12-08T18:50:58.907Z,12.86
2022-12-08T18:53:25.531Z,11.71
2022-12-08T18:55:52.230Z,11.73
2022-12-08T18:58:18.867Z,13.67
2022-12-08T19:00:45.667Z,13.46
2022-12-08T19:03:12.327Z,13.89
2022-12-08T19:05:39.403Z,13.71
2022-12-08T19:08:06.628Z,15.15
2022-12-08T19:10:34.934Z,20.02
2022-12-08T19:13:01.553Z,20.07
2022-12-08T19:15:28.443Z,18.31
2022-12-08T19:17:55.070Z,16.97
2022-12-08T19:20:21.631Z,16.39
2022-12-08T19:22:48.221Z,16.27
2022-12-08T19:25:14.746Z,16.02
2022-12-08T19:27:41.484Z,17.40
2022-12-08T19:30:08.541Z,16.76
2022-12-08T19:32:35.473Z,16.15
2022-12-08T19:35:07.087Z,16.32
2022-12-08T19:37:34.698Z,14.85
2022-12-08T19:40:20.065Z,13.60
2022-12-08T19:43:05.032Z,14.65
2022-12-08T19:45:32.052Z,15.44
2022-12-08T19:47:58.617Z,14.38
2022-12-08T19:50:37.483Z,15.48
2022-12-08T19:53:05.727Z,16.33
2022-12-08T19:55:32.365Z,17.40
2022-12-08T19:58:01.654Z,17.36
2022-12-08T20:00:29.251Z,17.57
2022-12-08T20:02:56.434Z,16.90
2022-12-08T20:05:23.814Z,16.75
2022-12-08T20:07:50.563Z,16.00
2022-12-08T20:10:20.085Z,14.70
2022-12-08T20:12:46.590Z,14.51
2022-12-08T20:15:14.783Z,14.20
2022-12-08T20:17:41.721Z,15.29
2022-12-08T20:20:10.262Z,16.30
2022-12-08T20:22:37.086Z,17.78
2022-12-08T20:25:04.036Z,18.89
2022-12-08T20:27:30.635Z,19.90
2022-12-08T20:29:57.192Z,19.37
2022-12-08T20:32:23.828Z,21.80
2022-12-08T20:34:50.551Z,29.36
2022-12-08T20:37:17.218Z,31.79
2022-12-08T20:39:43.937Z,31.58
2022-12-08T20:42:13.903Z,34.61
2022-12-08T20:44:44.515Z,38.58
2022-12-08T20:47:12.152Z,43.71
2022-12-08T20:49:38.939Z,39.63
2022-12-08T20:52:05.595Z,33.41
2022-12-08T20:54:32.194Z,33.26
2022-12-08T20:56:59.309Z,34.56
2022-12-08T20:59:26.997Z,35.57
2022-12-08T21:01:54.098Z,34.72
2022-12-08T21:04:21.952Z,32.29
2022-12-08T21:06:48.997Z,30.49
2022-12-08T21:09:16.106Z,26.95
2022-12-08T21:11:42.750Z,23.50
2022-12-08T21:14:09.398Z,26.13
2022-12-08T21:16:36.121Z,30.85
2022-12-08T21:19:02.986Z,29.90
2022-12-08T21:21:29.506Z,26.15
2022-12-08T21:23:56.160Z,24.50
2022-12-08T21:26:25.963Z,29.71
2022-12-08T21:28:57.960Z,31.31
2022-12-08T21:31:26.985Z,28.77
2022-12-08T21:33:55.159Z,28.99
2022-12-08T21:36:22.172Z,29.13
2022-12-08T21:38:48.983Z,27.30
2022-12-08T21:41:37.275Z,24.32
2022-12-08T21:44:04.803Z,26.71
2022-12-08T21:46:31.708Z,27.77
2022-12-08T21:48:58.893Z,30.20
2022-12-08T21:51:25.773Z,31.55
2022-12-08T21:53:52.627Z,33.46
2022-12-08T21:56:19.245Z,35.10
2022-12-08T21:58:45.848Z,37.02
2022-12-08T22:01:12.699Z,37.86
2022-12-08T22:03:40.421Z,42.68
2022-12-08T22:06:12.334Z,39.80
2022-12-08T22:08:39.654Z,38.52
2022-12-08T22:11:06.815Z,37.53
2022-12-08T22:13:35.014Z,37.12
2022-12-08T22:16:03.620Z,38.51
2022-12-08T22:18:30.490Z,38.88
2022-12-08T22:20:57.179Z,32.80
2022-12-08T22:23:23.896Z,31.68
2022-12-08T22:26:00.889Z,31.16
2022-12-08T22:28:29.973Z,32.67
2022-12-08T22:30:57.410Z,32.84
2022-12-08T22:33:24.165Z,33.98
2022-12-08T22:35:56.937Z,40.13
2022-12-08T22:38:23.906Z,33.16
2022-12-08T22:40:50.933Z,23.99
2022-12-08T22:43:17.737Z,23.22
2022-12-08T22:45:44.372Z,26.63
2022-12-08T22:48:11.444Z,28.37
2022-12-08T22:50:38.336Z,29.59
2022-12-08T22:53:05.385Z,29.14
2022-12-08T22:55:32.231Z,30.35
2022-12-08T22:57:59.076Z,29.91
2022-12-08T23:00:25.613Z,28.02
2022-12-08T23:02:52.247Z,26.15
2022-12-08T23:05:18.981Z,25.91
2022-12-08T23:07:45.751Z,25.52
2022-12-08T23:10:12.459Z,25.25
2022-12-08T23:12:39.003Z,24.02
2022-12-08T23:15:06.046Z,24.11
2022-12-08T23:17:32.767Z,23.46
2022-12-08T23:19:59.745Z,22.64
2022-12-08T23:22:26.276Z,23.77
2022-12-08T23:24:53.111Z,23.51
2022-12-08T23:27:19.718Z,22.75
2022-12-08T23:29:46.273Z,19.58
2022-12-08T23:32:13.116Z,18.67
2022-12-08T23:34:39.738Z,18.35
2022-12-08T23:37:06.685Z,19.01
2022-12-08T23:39:33.385Z,18.93
2022-12-08T23:41:59.970Z,16.50
2022-12-08T23:44:26.913Z,16.66
2022-12-08T23:46:53.482Z,18.31
2022-12-08T23:49:21.315Z,17.49
2022-12-08T23:51:47.898Z,17.04
2022-12-08T23:54:14.592Z,17.89
2022-12-08T23:56:41.778Z,18.11
2022-12-08T23:59:08.434Z,17.67
